createdAt,value
2019-04-20T00:00:21.698Z,69.59
2019-04-20T00:00:58.518Z,76.98
2019-04-20T00:01:34.073Z,81.73
2019-04-20T00:02:12.545Z,58.56
2019-04-20T00:02:44.028Z,64.74
2019-04-20T00:03:18.540Z,68.87
2019-04-20T00:03:53.838Z,70.13
2019-04-20T00:04:33.448Z,80.46
2019-04-20T00:05:05.285Z,110.44
2019-04-20T00:05:41.280Z,74.50
2019-04-20T00:06:15.375Z,68.17
2019-04-20T00:06:53.958Z,49.47
2019-04-20T00:07:30.973Z,57.19
2019-04-20T00:08:07.762Z,65.30
2019-04-20T00:08:39.453Z,72.03
2019-04-20T00:09:15.808Z,64.65
2019-04-20T00:09:55.243Z,79.74
2019-04-20T00:10:24.352Z,57.56
2019-04-20T00:11:07.358Z,66.92
2019-04-20T00:11:45.918Z,75.00
2019-04-20T00:12:17.204Z,58.49
2019-04-20T00:12:58.436Z,70.84
2019-04-20T00:13:28.808Z,58.44
2019-04-20T00:14:04.007Z,63.83
2019-04-20T00:14:33.876Z,70.25
2019-04-20T00:15:06.999Z,74.81
2019-04-20T00:15:42.939Z,73.07
2019-04-20T00:16:16.995Z,78.82
2019-04-20T00:16:52.764Z,72.73
2019-04-20T00:17:28.602Z,65.40
2019-04-20T00:18:05.375Z,62.35
2019-04-20T00:18:43.011Z,83.93
2019-04-20T00:19:16.185Z,68.25
2019-04-20T00:19:53.810Z,70.97
2019-04-20T00:20:29.039Z,64.55
2019-04-20T00:21:05.537Z,234.63
2019-04-20T00:21:38.844Z,98.48
2019-04-20T00:22:12.310Z,66.66
2019-04-20T00:22:49.325Z,79.12
2019-04-20T00:23:28.863Z,53.64
2019-04-20T00:23:56.610Z,66.74
2019-04-20T00:24:35.397Z,56.14
2019-04-20T00:25:12.231Z,60.10
2019-04-20T00:25:53.159Z,75.00
2019-04-20T00:26:24.867Z,62.34
2019-04-20T00:27:50.306Z,75.00
2019-04-20T00:28:19.871Z,71.63
2019-04-20T00:28:58.928Z,65.27
2019-04-20T00:29:33.875Z,74.31
2019-04-20T00:30:09.127Z,73.07
2019-04-20T00:30:49.670Z,75.00
2019-04-20T00:31:19.063Z,70.97
2019-04-20T00:31:49.200Z,75.00
2019-04-20T00:32:19.903Z,76.94
2019-04-20T00:32:58.530Z,72.27
2019-04-20T00:33:38.841Z,70.25
2019-04-20T00:34:07.942Z,75.00
2019-04-20T00:34:37.258Z,75.00
2019-04-20T00:35:08.299Z,70.97
2019-04-20T00:35:44.291Z,60.86
2019-04-20T00:36:20.107Z,70.97
2019-04-20T00:36:54.435Z,68.86
2019-04-20T00:37:29.868Z,68.86
2019-04-20T00:38:05.633Z,68.17
2019-04-20T00:38:47.738Z,59.36
2019-04-20T00:39:17.163Z,69.58
2019-04-20T00:39:51.201Z,88.76
2019-04-20T00:40:26.807Z,111.51
2019-04-20T00:41:05.634Z,89.21
2019-04-20T00:41:42.416Z,74.31
2019-04-20T00:42:15.886Z,70.25
2019-04-20T00:42:53.345Z,60.53
2019-04-20T00:43:30.122Z,69.59
2019-04-20T00:44:04.754Z,142.61
2019-04-20T00:44:38.081Z,143.00
2019-04-20T00:45:15.963Z,139.06
2019-04-20T00:45:53.728Z,186.82
2019-04-20T00:46:27.834Z,208.77
2019-04-20T00:47:11.149Z,210.00
2019-04-20T00:47:42.988Z,209.91
2019-04-20T00:48:18.562Z,130.39
2019-04-20T00:48:50.819Z,143.00
2019-04-20T00:49:30.750Z,102.02
2019-04-20T00:50:44.520Z,75.00
2019-04-20T00:51:26.239Z,75.00
2019-04-20T00:52:10.736Z,81.37
2019-04-20T00:52:45.534Z,300.00
2019-04-20T00:53:00.637Z,300.00
2019-04-20T00:53:31.514Z,194.33
2019-04-20T00:54:00.884Z,187.06
2019-04-20T00:54:36.832Z,187.79
2019-04-20T00:55:12.701Z,188.38
2019-04-20T00:55:46.908Z,187.69
2019-04-20T00:56:22.478Z,187.76
2019-04-20T00:57:12.050Z,187.76
2019-04-20T00:57:41.830Z,189.14
2019-04-20T00:58:16.441Z,235.63
2019-04-20T00:59:04.260Z,300.00
2019-04-20T00:59:31.624Z,34.94
2019-04-20T01:00:11.101Z,26.71
2019-04-20T01:00:58.260Z,215.22
2019-04-20T01:01:25.163Z,255.00
2019-04-20T01:02:01.028Z,255.00
2019-04-20T01:02:29.615Z,254.92
2019-04-20T01:03:11.037Z,255.00
2019-04-20T01:03:42.289Z,255.00
2019-04-20T01:04:20.523Z,255.00
2019-04-20T01:04:57.966Z,255.00
2019-04-20T01:05:27.908Z,255.00
2019-04-20T01:06:11.088Z,254.39
2019-04-20T01:06:36.844Z,255.00
2019-04-20T01:07:11.292Z,255.00
2019-04-20T01:07:43.126Z,255.00
2019-04-20T01:08:11.212Z,255.00
2019-04-20T01:08:46.352Z,255.00
2019-04-20T01:09:20.779Z,229.87
2019-04-20T01:09:56.309Z,187.72
2019-04-20T01:10:38.242Z,188.42
2019-04-20T01:11:08.111Z,187.69
2019-04-20T01:11:45.169Z,187.69
2019-04-20T01:12:24.134Z,188.38
2019-04-20T01:13:02.381Z,187.69
2019-04-20T01:13:30.064Z,119.40
2019-04-20T01:14:07.814Z,75.00
2019-04-20T01:14:46.623Z,75.00
2019-04-20T01:15:25.576Z,75.00
2019-04-20T01:15:55.364Z,75.00
2019-04-20T01:16:36.302Z,75.00
2019-04-20T01:17:11.378Z,75.00
2019-04-20T01:17:37.871Z,75.00
2019-04-20T01:18:14.032Z,75.00
2019-04-20T01:18:48.325Z,75.00
2019-04-20T01:19:23.825Z,75.00
2019-04-20T01:20:06.208Z,75.00
2019-04-20T01:20:41.414Z,75.00
2019-04-20T01:21:20.275Z,75.00
2019-04-20T01:21:57.868Z,60.98
2019-04-20T01:22:28.696Z,30.00
2019-04-20T01:23:07.451Z,267.37
2019-04-20T01:23:44.250Z,255.00
2019-04-20T01:24:20.193Z,242.37
2019-04-20T01:24:50.088Z,195.27
2019-04-20T01:25:30.078Z,75.00
2019-04-20T01:26:05.496Z,75.00
2019-04-20T01:26:41.707Z,75.00
2019-04-20T01:27:23.716Z,75.00
2019-04-20T01:28:04.471Z,75.00
2019-04-20T01:28:38.529Z,75.00
2019-04-20T01:29:09.122Z,75.00
2019-04-20T01:29:39.287Z,75.00
2019-04-20T01:30:16.018Z,75.00
2019-04-20T01:30:50.625Z,75.00
2019-04-20T01:31:28.486Z,75.00
2019-04-20T01:32:07.131Z,75.00
2019-04-20T01:32:49.215Z,75.00
2019-04-20T01:33:16.358Z,75.00
2019-04-20T01:33:51.960Z,75.00
2019-04-20T01:34:26.548Z,73.74
2019-04-20T01:34:59.837Z,75.00
2019-04-20T01:35:47.884Z,75.00
2019-04-20T01:36:21.590Z,75.00
2019-04-20T01:36:52.055Z,75.00
2019-04-20T01:37:27.436Z,75.00
2019-04-20T01:38:08.530Z,57.84
2019-04-20T01:38:39.958Z,30.00
2019-04-20T01:39:11.200Z,30.00
2019-04-20T01:39:39.937Z,55.66
2019-04-20T01:40:09.934Z,70.97
2019-04-20T01:40:44.484Z,75.00
2019-04-20T01:41:20.325Z,75.00
2019-04-20T01:41:56.116Z,75.00
2019-04-20T01:42:30.404Z,75.00
2019-04-20T01:43:05.747Z,75.00
2019-04-20T01:43:41.555Z,75.00
2019-04-20T01:44:18.883Z,75.00
2019-04-20T01:44:53.792Z,75.00
2019-04-20T01:45:32.426Z,75.00
2019-04-20T01:46:09.308Z,75.00
2019-04-20T01:46:39.133Z,75.00
2019-04-20T01:47:14.955Z,58.60
2019-04-20T01:47:53.072Z,30.00
2019-04-20T01:48:28.663Z,30.00
2019-04-20T01:49:06.933Z,30.00
2019-04-20T01:49:36.871Z,30.00
2019-04-20T01:50:18.610Z,30.00
2019-04-20T01:50:54.811Z,30.00
2019-04-20T01:51:27.231Z,30.00
2019-04-20T01:52:09.701Z,47.95
2019-04-20T01:52:47.029Z,75.00
2019-04-20T01:53:18.966Z,75.00
2019-04-20T01:53:58.420Z,75.00
2019-04-20T01:54:31.414Z,75.00
2019-04-20T01:55:12.698Z,75.00
2019-04-20T01:55:45.652Z,75.00
2019-04-20T01:56:18.115Z,75.00
2019-04-20T01:56:52.008Z,75.00
2019-04-20T01:57:23.837Z,75.00
2019-04-20T01:58:07.984Z,75.00
2019-04-20T01:58:50.527Z,75.00
2019-04-20T01:59:16.365Z,128.47
2019-04-20T01:59:47.047Z,142.23
2019-04-20T02:00:20.624Z,142.61
2019-04-20T02:00:51.177Z,142.33
2019-04-20T02:01:28.036Z,143.00
2019-04-20T02:02:04.634Z,141.93
2019-04-20T02:02:35.468Z,142.28
2019-04-20T02:03:10.260Z,142.23
2019-04-20T02:03:48.258Z,142.67
2019-04-20T02:04:27.086Z,143.00
2019-04-20T02:05:00.634Z,141.13
2019-04-20T02:05:34.204Z,141.89
2019-04-20T02:06:09.906Z,143.00
2019-04-20T02:06:48.077Z,232.11
2019-04-20T02:07:18.430Z,255.00
2019-04-20T02:07:54.175Z,255.00
2019-04-20T02:08:29.156Z,255.00
2019-04-20T02:09:08.000Z,255.00
2019-04-20T02:09:43.372Z,255.00
2019-04-20T02:10:15.140Z,254.92
2019-04-20T02:10:53.684Z,255.00
2019-04-20T02:11:29.589Z,254.92
2019-04-20T02:12:06.976Z,255.00
2019-04-20T02:12:38.838Z,254.39
2019-04-20T02:13:11.156Z,255.00
2019-04-20T02:13:52.849Z,255.00
2019-04-20T02:14:28.717Z,255.00
2019-04-20T02:15:00.441Z,255.00
2019-04-20T02:15:39.965Z,255.00
2019-04-20T02:16:16.912Z,255.00
2019-04-20T02:16:47.614Z,255.00
2019-04-20T02:17:26.032Z,255.00
2019-04-20T02:18:07.492Z,255.00
2019-04-20T02:18:41.434Z,255.00
2019-04-20T02:19:21.362Z,255.00
2019-04-20T02:20:02.323Z,255.00
2019-04-20T02:20:34.540Z,255.00
2019-04-20T02:21:38.612Z,255.00
2019-04-20T02:22:13.546Z,255.00
2019-04-20T02:22:51.835Z,255.00
2019-04-20T02:23:22.371Z,255.00
2019-04-20T02:23:52.595Z,255.00
2019-04-20T02:24:21.695Z,255.00
2019-04-20T02:24:57.064Z,255.00
2019-04-20T02:25:31.671Z,254.92
2019-04-20T02:26:07.285Z,255.00
2019-04-20T02:26:43.045Z,255.00
2019-04-20T02:27:20.617Z,255.00
2019-04-20T02:27:58.070Z,255.00
2019-04-20T02:28:58.585Z,254.92
2019-04-20T02:29:30.694Z,255.00
2019-04-20T02:30:04.455Z,255.00
2019-04-20T02:30:53.908Z,254.39
2019-04-20T02:31:37.558Z,147.91
2019-04-20T02:32:51.130Z,142.28
2019-04-20T02:33:21.509Z,246.67
2019-04-20T02:33:58.983Z,254.92
2019-04-20T02:34:29.192Z,255.00
2019-04-20T02:34:55.465Z,255.00
2019-04-20T02:35:30.837Z,255.00
2019-04-20T02:36:10.386Z,255.00
2019-04-20T02:36:53.202Z,255.00
2019-04-20T02:37:45.450Z,255.00
2019-04-20T02:38:39.212Z,255.00
2019-04-20T02:39:27.000Z,255.00
2019-04-20T02:39:47.155Z,255.00
2019-04-20T02:40:15.748Z,255.00
2019-04-20T02:40:54.088Z,254.39
2019-04-20T02:41:30.022Z,255.00
2019-04-20T02:41:58.254Z,255.00
2019-04-20T02:42:48.996Z,255.00
2019-04-20T02:43:30.447Z,254.39
2019-04-20T02:43:57.707Z,255.00
2019-04-20T02:44:21.637Z,265.48
2019-04-20T02:45:05.096Z,189.07
2019-04-20T02:45:34.865Z,187.03
2019-04-20T02:46:00.834Z,187.06
2019-04-20T02:46:48.865Z,187.03
2019-04-20T02:47:24.670Z,187.06
2019-04-20T02:47:56.600Z,187.06
2019-04-20T02:48:21.640Z,156.27
2019-04-20T02:49:12.871Z,143.00
2019-04-20T02:50:30.186Z,142.28
2019-04-20T02:50:50.031Z,142.67
2019-04-20T02:51:28.835Z,143.00
2019-04-20T02:52:46.137Z,142.23
2019-04-20T02:53:13.719Z,119.59
2019-04-20T02:54:02.241Z,75.00
2019-04-20T02:54:20.353Z,75.00
2019-04-20T02:55:02.210Z,75.00
2019-04-20T02:55:47.714Z,63.08
2019-04-20T02:56:49.824Z,142.61
2019-04-20T02:59:31.535Z,142.67
2019-04-20T03:00:23.943Z,143.00
2019-04-20T03:00:58.324Z,142.61
2019-04-20T03:01:17.617Z,142.61
2019-04-20T03:01:50.278Z,142.23
2019-04-20T03:02:23.667Z,142.67
2019-04-20T03:02:53.318Z,143.00
2019-04-20T03:03:26.526Z,142.61
2019-04-20T03:03:57.658Z,142.28
2019-04-20T03:04:37.361Z,142.67
2019-04-20T03:05:16.482Z,142.61
2019-04-20T03:05:47.546Z,179.69
2019-04-20T03:06:23.293Z,187.69
2019-04-20T03:07:05.455Z,187.79
2019-04-20T03:07:48.127Z,187.76
2019-04-20T03:08:19.115Z,188.38
2019-04-20T03:08:59.493Z,187.69
2019-04-20T03:09:31.544Z,188.42
2019-04-20T03:10:06.594Z,187.72
2019-04-20T03:10:46.423Z,187.72
2019-04-20T03:11:21.254Z,187.72
2019-04-20T03:12:08.063Z,187.79
2019-04-20T03:12:34.460Z,187.00
2019-04-20T03:13:05.333Z,187.00
2019-04-20T03:13:36.743Z,188.38
2019-04-20T03:14:10.622Z,187.00
2019-04-20T03:14:42.383Z,187.00
2019-04-20T03:15:29.563Z,187.03
2019-04-20T03:16:00.078Z,187.69
2019-04-20T03:16:31.868Z,187.00
2019-04-20T03:17:15.235Z,187.15
2019-04-20T03:17:46.377Z,187.00
2019-04-20T03:18:19.226Z,187.72
2019-04-20T03:18:57.409Z,187.82
2019-04-20T03:19:30.253Z,187.69
2019-04-20T03:19:57.393Z,187.69
2019-04-20T03:20:48.893Z,187.00
2019-04-20T03:22:02.371Z,188.42
2019-04-20T03:22:48.361Z,187.69
2019-04-20T03:23:42.571Z,188.42
2019-04-20T03:24:20.437Z,187.72
2019-04-20T03:24:54.967Z,187.00
2019-04-20T03:25:33.579Z,189.11
2019-04-20T03:26:06.465Z,187.00
2019-04-20T03:26:36.768Z,187.00
2019-04-20T03:27:10.824Z,187.03
2019-04-20T03:27:44.447Z,187.03
2019-04-20T03:28:23.615Z,189.07
2019-04-20T03:28:56.661Z,188.42
2019-04-20T03:29:37.123Z,187.03
2019-04-20T03:30:22.870Z,187.76
2019-04-20T03:31:45.174Z,187.76
2019-04-20T03:33:23.111Z,187.00
2019-04-20T03:34:03.299Z,188.38
2019-04-20T03:34:51.600Z,97.48
2019-04-20T03:35:51.099Z,75.00
2019-04-20T03:36:15.593Z,108.61
2019-04-20T03:36:46.963Z,208.68
2019-04-20T03:37:21.894Z,207.51
2019-04-20T03:37:52.629Z,210.00
2019-04-20T03:38:19.848Z,208.68
2019-04-20T03:38:57.290Z,209.91
2019-04-20T03:39:33.451Z,210.00
2019-04-20T03:40:04.367Z,209.91
2019-04-20T03:40:42.967Z,210.00
2019-04-20T03:41:16.563Z,209.91
2019-04-20T03:41:43.549Z,210.00
2019-04-20T03:42:12.516Z,210.00
2019-04-20T03:42:48.656Z,209.82
2019-04-20T03:43:24.442Z,210.00
2019-04-20T03:44:04.465Z,208.68
2019-04-20T03:44:35.839Z,210.00
2019-04-20T03:45:13.137Z,207.51
2019-04-20T03:45:51.718Z,208.77
2019-04-20T03:46:30.085Z,208.77
2019-04-20T03:46:59.659Z,210.00
2019-04-20T03:47:42.593Z,207.42
2019-04-20T03:48:23.207Z,209.91
2019-04-20T03:49:01.111Z,187.03
2019-04-20T03:49:42.425Z,187.69
2019-04-20T03:50:18.623Z,187.06
2019-04-20T03:50:49.185Z,188.42
2019-04-20T03:51:29.114Z,187.09
2019-04-20T03:51:57.387Z,187.03
2019-04-20T03:52:34.053Z,188.42
2019-04-20T03:53:12.990Z,188.45
2019-04-20T03:53:46.758Z,187.76
2019-04-20T03:54:18.480Z,188.42
2019-04-20T03:54:47.849Z,187.72
2019-04-20T03:55:26.193Z,187.69
2019-04-20T03:56:05.142Z,187.72
2019-04-20T03:56:39.005Z,188.38
2019-04-20T03:57:23.502Z,198.02
2019-04-20T03:57:57.533Z,187.03
2019-04-20T03:58:28.772Z,189.07
2019-04-20T03:59:03.103Z,187.72
2019-04-20T03:59:43.695Z,187.72
2019-04-20T04:00:16.164Z,188.42
2019-04-20T04:00:45.944Z,189.76
2019-04-20T04:01:43.351Z,187.72
2019-04-20T04:02:22.259Z,189.18
2019-04-20T04:02:45.466Z,187.03
2019-04-20T04:03:26.961Z,187.06
2019-04-20T04:03:53.765Z,187.00
2019-04-20T04:04:31.218Z,187.69
2019-04-20T04:04:54.582Z,187.69
2019-04-20T04:05:27.697Z,187.06
2019-04-20T04:06:04.137Z,187.79
2019-04-20T04:06:33.577Z,187.69
2019-04-20T04:07:01.860Z,188.42
2019-04-20T04:07:40.588Z,188.45
2019-04-20T04:08:20.474Z,187.06
2019-04-20T04:08:56.138Z,187.69
2019-04-20T04:09:32.771Z,188.38
2019-04-20T04:10:09.778Z,187.03
2019-04-20T04:10:53.373Z,187.06
2019-04-20T04:11:24.428Z,188.42
2019-04-20T04:11:55.969Z,187.76
2019-04-20T04:12:25.179Z,187.69
2019-04-20T04:12:53.108Z,187.03
2019-04-20T04:13:29.111Z,188.42
2019-04-20T04:14:04.916Z,187.69
2019-04-20T04:14:40.873Z,187.00
2019-04-20T04:15:15.153Z,187.76
2019-04-20T04:15:55.621Z,187.00
2019-04-20T04:16:32.907Z,187.03
2019-04-20T04:17:02.940Z,187.00
2019-04-20T04:17:41.568Z,187.03
2019-04-20T04:18:17.792Z,187.69
2019-04-20T04:18:53.329Z,187.69
2019-04-20T04:19:29.554Z,188.42
2019-04-20T04:20:05.046Z,188.42
2019-04-20T04:20:41.894Z,187.76
2019-04-20T04:21:16.159Z,187.69
2019-04-20T04:21:59.242Z,187.03
2019-04-20T04:22:37.745Z,187.06
2019-04-20T04:23:10.286Z,187.03
2019-04-20T04:23:44.474Z,187.03
2019-04-20T04:24:16.954Z,187.76
2019-04-20T04:24:57.071Z,187.69
2019-04-20T04:25:29.792Z,187.03
2019-04-20T04:26:15.040Z,187.00
2019-04-20T04:26:42.711Z,187.03
2019-04-20T04:27:22.528Z,187.06
2019-04-20T04:27:59.464Z,188.45
2019-04-20T04:28:28.505Z,189.07
2019-04-20T04:29:18.118Z,116.41
2019-04-20T04:29:43.048Z,142.61
2019-04-20T04:30:14.816Z,75.00
2019-04-20T04:30:57.965Z,75.00
2019-04-20T04:31:28.141Z,75.00
2019-04-20T04:32:14.133Z,75.00
2019-04-20T04:33:00.157Z,75.00
2019-04-20T04:33:55.557Z,75.00
2019-04-20T04:34:58.026Z,75.00
2019-04-20T04:35:31.160Z,44.34
2019-04-20T04:36:11.386Z,21.02
2019-04-20T04:36:52.656Z,84.17
2019-04-20T04:37:26.936Z,75.00
2019-04-20T04:37:57.092Z,75.00
2019-04-20T04:38:39.584Z,75.00
2019-04-20T04:39:21.139Z,75.00
2019-04-20T04:39:49.045Z,75.00
2019-04-20T04:40:37.307Z,73.01
2019-04-20T04:41:04.849Z,30.00
2019-04-20T04:41:31.042Z,30.00
2019-04-20T04:42:07.049Z,30.00
2019-04-20T04:42:45.531Z,30.00
2019-04-20T04:43:22.186Z,30.00
2019-04-20T04:43:44.383Z,30.00
2019-04-20T04:44:23.578Z,30.00
2019-04-20T04:44:53.653Z,30.00
2019-04-20T04:45:25.015Z,27.64
2019-04-20T04:45:55.607Z,5.39
2019-04-20T04:46:33.910Z,66.60
2019-04-20T04:47:08.725Z,75.00
2019-04-20T04:47:42.822Z,75.00
2019-04-20T04:48:23.847Z,75.00
2019-04-20T04:48:54.661Z,75.00
2019-04-20T04:49:34.165Z,75.00
2019-04-20T04:50:11.080Z,75.00
2019-04-20T04:50:47.469Z,242.96
2019-04-20T04:51:20.839Z,255.00
2019-04-20T04:51:57.440Z,254.84
2019-04-20T04:52:32.127Z,255.00
2019-04-20T04:53:09.349Z,254.14
2019-04-20T04:53:46.862Z,255.00
2019-04-20T04:54:21.588Z,253.78
2019-04-20T04:54:54.338Z,248.24
2019-04-20T04:55:32.740Z,144.41
2019-04-20T04:56:04.830Z,143.00
2019-04-20T04:56:33.607Z,189.88
2019-04-20T04:57:09.490Z,192.44
2019-04-20T04:57:43.620Z,210.00
2019-04-20T04:58:19.545Z,208.68
2019-04-20T04:58:54.356Z,208.68
2019-04-20T04:59:29.823Z,209.91
2019-04-20T05:00:05.634Z,210.00
2019-04-20T05:00:40.802Z,208.77
2019-04-20T05:01:21.718Z,209.73
2019-04-20T05:01:54.947Z,209.91
2019-04-20T05:02:33.394Z,208.77
2019-04-20T05:03:14.528Z,209.91
2019-04-20T05:04:05.288Z,208.77
2019-04-20T05:04:35.241Z,208.77
2019-04-20T05:05:12.926Z,207.51
2019-04-20T05:05:41.332Z,207.42
2019-04-20T05:06:17.105Z,209.91
2019-04-20T05:06:49.463Z,208.77
2019-04-20T05:07:22.122Z,208.77
2019-04-20T05:07:58.355Z,209.91
2019-04-20T05:08:27.415Z,209.91
2019-04-20T05:09:00.196Z,209.91
2019-04-20T05:09:31.798Z,208.77
2019-04-20T05:10:07.617Z,208.68
2019-04-20T05:10:42.160Z,210.00
2019-04-20T05:11:17.407Z,210.00
2019-04-20T05:11:59.730Z,210.00
2019-04-20T05:12:31.363Z,209.91
2019-04-20T05:13:04.915Z,210.00
2019-04-20T05:13:47.960Z,210.00
2019-04-20T05:14:21.603Z,210.00
2019-04-20T05:14:57.906Z,206.14
2019-04-20T05:15:40.436Z,206.22
2019-04-20T05:16:13.241Z,210.00
2019-04-20T05:16:50.021Z,210.00
2019-04-20T05:17:26.156Z,208.59
2019-04-20T05:18:01.539Z,208.68
2019-04-20T05:18:44.854Z,104.51
2019-04-20T05:19:19.620Z,75.00
2019-04-20T05:19:53.080Z,75.00
2019-04-20T05:20:24.199Z,75.00
2019-04-20T05:21:05.897Z,75.00
2019-04-20T05:21:38.971Z,75.00
2019-04-20T05:22:15.937Z,75.00
2019-04-20T05:22:48.276Z,349.54
2019-04-20T05:23:19.472Z,300.00
2019-04-20T05:23:53.353Z,300.00
2019-04-20T05:24:30.491Z,300.00
2019-04-20T05:25:12.872Z,280.17
2019-04-20T05:25:50.923Z,188.40
2019-04-20T05:26:19.726Z,188.82
2019-04-20T05:26:55.596Z,209.91
2019-04-20T05:27:30.079Z,210.00
2019-04-20T05:28:03.040Z,210.00
2019-04-20T05:28:33.623Z,208.77
2019-04-20T05:29:07.924Z,210.00
2019-04-20T05:29:34.975Z,209.91
2019-04-20T05:30:09.729Z,210.00
2019-04-20T05:30:48.609Z,210.00
2019-04-20T05:31:24.444Z,209.91
2019-04-20T05:32:02.775Z,208.68
2019-04-20T05:32:39.695Z,210.00
2019-04-20T05:33:09.120Z,210.00
2019-04-20T05:34:01.208Z,209.91
2019-04-20T05:34:38.988Z,208.77
2019-04-20T05:35:16.053Z,208.77
2019-04-20T05:35:45.693Z,208.77
2019-04-20T05:36:23.599Z,208.68
2019-04-20T05:36:57.331Z,210.00
2019-04-20T05:37:41.389Z,209.82
2019-04-20T05:38:13.208Z,209.73
2019-04-20T05:38:48.959Z,210.00
2019-04-20T05:40:01.514Z,209.91
2019-04-20T05:40:32.708Z,207.51
2019-04-20T05:41:04.625Z,208.68
2019-04-20T05:41:37.343Z,210.00
2019-04-20T05:42:20.294Z,210.00
2019-04-20T05:42:52.520Z,78.57
2019-04-20T05:43:27.504Z,141.93
2019-04-20T05:43:59.827Z,191.79
2019-04-20T05:44:44.277Z,3.25
2019-04-20T05:45:11.633Z,12.62
2019-04-20T05:45:41.379Z,134.35
2019-04-20T05:46:26.393Z,142.61
2019-04-20T05:47:00.992Z,143.00
2019-04-20T05:47:34.367Z,142.28
2019-04-20T05:48:10.363Z,124.82
2019-04-20T05:48:48.782Z,144.93
2019-04-20T05:49:23.314Z,356.57
2019-04-20T05:49:53.757Z,75.72
2019-04-20T05:50:33.558Z,114.82
2019-04-20T05:51:01.711Z,77.18
2019-04-20T05:51:41.013Z,88.70
2019-04-20T05:52:31.570Z,78.57
2019-04-20T05:52:59.752Z,61.56
2019-04-20T05:53:37.062Z,61.46
2019-04-20T05:54:02.680Z,65.87
2019-04-20T05:54:38.814Z,79.54
2019-04-20T05:55:16.340Z,141.68
2019-04-20T05:55:53.251Z,78.57
2019-04-20T05:56:30.668Z,237.56
2019-04-20T05:57:05.466Z,33.78
2019-04-20T05:57:36.222Z,23.39
2019-04-20T05:58:45.432Z,261.60
2019-04-20T05:59:23.078Z,84.01
2019-04-20T06:00:01.573Z,249.79
2019-04-20T06:00:37.464Z,259.31
2019-04-20T06:01:08.876Z,201.76
2019-04-20T06:01:47.648Z,189.11
2019-04-20T06:02:25.238Z,212.03
2019-04-20T06:02:56.105Z,300.53
2019-04-20T06:03:25.924Z,123.21
2019-04-20T06:04:03.041Z,142.67
2019-04-20T06:04:54.187Z,82.41
2019-04-20T06:05:17.774Z,69.58
2019-04-20T06:06:00.577Z,115.98
2019-04-20T06:06:28.907Z,94.01
2019-04-20T06:06:59.796Z,76.75
2019-04-20T06:07:38.469Z,43.20
2019-04-20T06:08:14.969Z,84.33
2019-04-20T06:08:56.620Z,301.48
2019-04-20T06:09:30.769Z,118.23
2019-04-20T06:10:06.033Z,141.93
2019-04-20T06:10:38.158Z,143.00
2019-04-20T06:11:09.374Z,16.82
2019-04-20T06:11:56.221Z,20.05
2019-04-20T06:12:19.826Z,69.19
2019-04-20T06:12:55.413Z,131.69
2019-04-20T06:13:27.731Z,16.35
2019-04-20T06:13:57.783Z,133.27
2019-04-20T06:14:39.484Z,139.23
2019-04-20T06:15:14.475Z,130.90
2019-04-20T06:16:00.582Z,127.45
2019-04-20T06:16:29.902Z,89.99
2019-04-20T06:17:02.934Z,216.38
2019-04-20T06:17:39.312Z,228.34
2019-04-20T06:18:13.249Z,104.44
2019-04-20T06:18:49.573Z,101.33
2019-04-20T06:19:31.298Z,278.31
2019-04-20T06:20:05.176Z,305.80
2019-04-20T06:20:50.409Z,111.08
2019-04-20T06:21:20.153Z,198.88
2019-04-20T06:21:53.041Z,50.81
2019-04-20T06:22:31.177Z,73.92
2019-04-20T06:23:09.481Z,54.73
2019-04-20T06:23:53.089Z,104.28
2019-04-20T06:24:10.667Z,77.67
2019-04-20T06:24:52.798Z,161.11
2019-04-20T06:27:09.130Z,79.55
2019-04-20T06:27:48.938Z,47.70
2019-04-20T06:28:17.347Z,71.73
2019-04-20T06:28:46.442Z,100.15
2019-04-20T06:29:23.561Z,71.57
2019-04-20T06:30:01.191Z,48.23
2019-04-20T06:30:40.632Z,63.73
2019-04-20T06:31:22.704Z,72.39
2019-04-20T06:31:52.784Z,70.58
2019-04-20T06:32:37.399Z,68.86
2019-04-20T06:33:09.051Z,67.68
2019-04-20T06:33:55.215Z,70.23
2019-04-20T06:34:46.532Z,63.83
2019-04-20T06:35:33.594Z,73.09
2019-04-20T06:36:42.966Z,81.77
2019-04-20T06:37:00.884Z,44.42
2019-04-20T06:37:56.503Z,73.59
2019-04-20T06:38:38.673Z,93.91
2019-04-20T06:39:02.375Z,79.30
2019-04-20T06:39:40.396Z,43.92
2019-04-20T06:40:24.231Z,67.04
2019-04-20T06:41:21.099Z,85.23
2019-04-20T06:42:21.951Z,96.74
2019-04-20T06:43:04.095Z,51.03
2019-04-20T06:43:43.295Z,73.79
2019-04-20T06:44:16.406Z,70.74
2019-04-20T06:44:45.485Z,55.68
2019-04-20T06:45:27.798Z,84.73
2019-04-20T06:46:05.597Z,61.68
2019-04-20T06:46:37.482Z,65.59
2019-04-20T06:47:54.602Z,109.40
2019-04-20T06:48:30.912Z,133.44
2019-04-20T06:49:05.596Z,75.37
2019-04-20T06:49:33.175Z,145.77
2019-04-20T06:50:11.434Z,66.92
2019-04-20T06:50:40.529Z,57.54
2019-04-20T06:51:22.248Z,64.09
2019-04-20T06:51:52.949Z,11.06
2019-04-20T06:52:32.344Z,50.82
2019-04-20T06:53:12.876Z,74.30
2019-04-20T06:53:45.301Z,51.18
2019-04-20T06:54:08.157Z,68.09
2019-04-20T06:54:48.584Z,100.14
2019-04-20T06:55:19.703Z,88.85
2019-04-20T06:56:08.404Z,67.59
2019-04-20T06:56:45.463Z,71.48
2019-04-20T06:57:09.981Z,74.90
2019-04-20T06:58:01.537Z,73.43
2019-04-20T06:58:39.107Z,133.84
2019-04-20T06:59:06.482Z,71.19
2019-04-20T06:59:39.052Z,72.00
2019-04-20T07:00:12.831Z,65.92
2019-04-20T07:00:55.372Z,76.29
2019-04-20T07:01:17.432Z,57.21
2019-04-20T07:02:02.967Z,85.82
2019-04-20T07:02:38.643Z,71.82
2019-04-20T07:03:05.758Z,63.35
2019-04-20T07:04:10.776Z,60.82
2019-04-20T07:04:36.538Z,76.93
2019-04-20T07:05:25.782Z,178.80
2019-04-20T07:06:24.499Z,59.83
2019-04-20T07:07:21.189Z,185.21
2019-04-20T07:07:54.317Z,156.37
2019-04-20T07:08:45.104Z,73.15
2019-04-20T07:09:07.535Z,97.12
2019-04-20T07:09:49.073Z,54.10
2019-04-20T07:10:53.159Z,90.74
2019-04-20T07:11:24.001Z,77.49
2019-04-20T07:11:56.605Z,56.16
2019-04-20T07:12:27.236Z,82.59
2019-04-20T07:13:02.722Z,66.15
2019-04-20T07:13:35.936Z,77.45
2019-04-20T07:14:04.920Z,39.35
2019-04-20T07:14:43.315Z,78.43
2019-04-20T07:15:23.197Z,72.88
2019-04-20T07:15:57.226Z,82.06
2019-04-20T07:16:40.879Z,78.69
2019-04-20T07:17:28.422Z,122.07
2019-04-20T07:17:58.968Z,79.70
2019-04-20T07:18:29.953Z,71.42
2019-04-20T07:19:01.014Z,76.05
2019-04-20T07:19:39.093Z,76.81
2019-04-20T07:20:10.536Z,77.81
2019-04-20T07:20:56.782Z,59.77
2019-04-20T07:21:40.558Z,67.18
2019-04-20T07:22:10.511Z,64.76
2019-04-20T07:22:43.992Z,75.51
2019-04-20T07:23:21.356Z,99.89
2019-04-20T07:23:51.669Z,84.71
2019-04-20T07:24:24.946Z,82.74
2019-04-20T07:24:59.237Z,75.84
2019-04-20T07:25:33.194Z,69.06
2019-04-20T07:26:09.339Z,92.58
2019-04-20T07:26:44.962Z,61.18
2019-04-20T07:27:19.986Z,67.12
2019-04-20T07:27:56.485Z,50.67
2019-04-20T07:28:35.517Z,81.98
2019-04-20T07:29:08.744Z,104.71
2019-04-20T07:29:44.916Z,71.60
2019-04-20T07:30:12.693Z,86.38
2019-04-20T07:30:52.097Z,63.44
2019-04-20T07:31:27.735Z,65.47
2019-04-20T07:31:53.814Z,58.37
2019-04-20T07:32:43.834Z,147.68
2019-04-20T07:33:17.281Z,71.61
2019-04-20T07:33:46.496Z,77.73
2019-04-20T07:34:25.123Z,80.28
2019-04-20T07:34:55.770Z,83.88
2019-04-20T07:35:30.430Z,67.73
2019-04-20T07:36:15.858Z,96.03
2019-04-20T07:36:50.313Z,122.55
2019-04-20T07:37:46.697Z,67.13
2019-04-20T07:38:15.363Z,70.93
2019-04-20T07:38:38.119Z,73.50
2019-04-20T07:39:07.435Z,80.49
2019-04-20T07:39:46.612Z,68.82
2019-04-20T07:40:15.090Z,253.39
2019-04-20T07:40:50.349Z,86.67
2019-04-20T07:41:37.231Z,317.82
2019-04-20T07:42:10.385Z,84.53
2019-04-20T07:42:41.004Z,163.24
2019-04-20T07:43:09.300Z,73.09
2019-04-20T07:44:01.657Z,84.18
2019-04-20T07:44:37.621Z,93.65
2019-04-20T07:45:00.847Z,30.25
2019-04-20T07:45:33.249Z,119.36
2019-04-20T07:46:21.824Z,121.45
2019-04-20T07:46:56.391Z,213.58
2019-04-20T07:47:29.724Z,74.61